sensor_id;sensor_type;location;lat;lon;timestamp;P1;durP1;ratioP1;P2;durP2;ratioP2
41705;SDS011;27385;51.096;17.190;2023-06-22T00:00:55;24.40;;;13.40;;
41705;SDS011;27385;51.096;17.190;2023-06-22T00:03:34;20.70;;;12.70;;
41705;SDS011;27385;51.096;17.190;2023-06-22T00:06:05;18.90;;;11.70;;
41705;SDS011;27385;51.096;17.190;2023-06-22T00:08:36;19.70;;;11.90;;
41705;SDS011;27385;51.096;17.190;2023-06-22T00:11:08;22.60;;;11.90;;
41705;SDS011;27385;51.096;17.190;2023-06-22T00:13:39;19.70;;;12.10;;
41705;SDS011;27385;51.096;17.190;2023-06-22T00:16:10;20.90;;;12.00;;
41705;SDS011;27385;51.096;17.190;2023-06-22T00:18:41;22.20;;;12.60;;
41705;SDS011;27385;51.096;17.190;2023-06-22T00:21:14;19.60;;;11.20;;
41705;SDS011;27385;51.096;17.190;2023-06-22T00:23:49;22.10;;;13.00;;
41705;SDS011;27385;51.096;17.190;2023-06-22T00:26:20;24.90;;;13.60;;
41705;SDS011;27385;51.096;17.190;2023-06-22T00:28:52;24.50;;;13.50;;
41705;SDS011;27385;51.096;17.190;2023-06-22T00:31:24;23.10;;;13.30;;
41705;SDS011;27385;51.096;17.190;2023-06-22T00:33:57;23.50;;;13.50;;
41705;SDS011;27385;51.096;17.190;2023-06-22T00:36:28;27.50;;;13.10;;
41705;SDS011;27385;51.096;17.190;2023-06-22T00:39:00;21.60;;;12.70;;
41705;SDS011;27385;51.096;17.190;2023-06-22T00:41:33;23.70;;;13.30;;
41705;SDS011;27385;51.096;17.190;2023-06-22T00:44:05;20.90;;;12.80;;
41705;SDS011;27385;51.096;17.190;2023-06-22T00:46:37;22.70;;;12.40;;
41705;SDS011;27385;51.096;17.190;2023-06-22T00:49:08;22.40;;;12.70;;
41705;SDS011;27385;51.096;17.190;2023-06-22T00:51:39;20.60;;;12.00;;
41705;SDS011;27385;51.096;17.190;2023-06-22T00:54:15;20.00;;;11.20;;
41705;SDS011;27385;51.096;17.190;2023-06-22T00:56:53;21.20;;;11.90;;
41705;SDS011;27385;51.096;17.190;2023-06-22T00:59:25;22.50;;;13.20;;
41705;SDS011;27385;51.096;17.190;2023-06-22T01:01:58;22.10;;;12.70;;
41705;SDS011;27385;51.096;17.190;2023-06-22T01:04:35;22.60;;;12.80;;
41705;SDS011;27385;51.096;17.190;2023-06-22T01:07:10;23.60;;;12.50;;
41705;SDS011;27385;51.096;17.190;2023-06-22T01:09:51;24.60;;;14.70;;
41705;SDS011;27385;51.096;17.190;2023-06-22T01:12:30;24.00;;;13.40;;
41705;SDS011;27385;51.096;17.190;2023-06-22T01:15:07;24.40;;;13.80;;
41705;SDS011;27385;51.096;17.190;2023-06-22T01:17:41;25.00;;;14.00;;
41705;SDS011;27385;51.096;17.190;2023-06-22T01:20:15;22.40;;;12.50;;
41705;SDS011;27385;51.096;17.190;2023-06-22T01:25:48;23.40;;;13.10;;
41705;SDS011;27385;51.096;17.190;2023-06-22T01:28:36;21.10;;;12.70;;
41705;SDS011;27385;51.096;17.190;2023-06-22T01:31:13;25.20;;;13.80;;
41705;SDS011;27385;51.096;17.190;2023-06-22T01:33:48;23.90;;;12.70;;
41705;SDS011;27385;51.096;17.190;2023-06-22T01:36:23;24.80;;;13.50;;
41705;SDS011;27385;51.096;17.190;2023-06-22T01:38:56;22.60;;;13.20;;
41705;SDS011;27385;51.096;17.190;2023-06-22T01:41:33;25.70;;;13.70;;
41705;SDS011;27385;51.096;17.190;2023-06-22T01:44:07;23.70;;;13.40;;
41705;SDS011;27385;51.096;17.190;2023-06-22T01:46:39;23.80;;;13.00;;
41705;SDS011;27385;51.096;17.190;2023-06-22T01:49:11;21.70;;;12.50;;
41705;SDS011;27385;51.096;17.190;2023-06-22T01:51:49;23.30;;;14.10;;
41705;SDS011;27385;51.096;17.190;2023-06-22T01:54:22;25.90;;;13.70;;
41705;SDS011;27385;51.096;17.190;2023-06-22T01:56:52;22.20;;;13.40;;
41705;SDS011;27385;51.096;17.190;2023-06-22T01:59:25;24.40;;;13.70;;
41705;SDS011;27385;51.096;17.190;2023-06-22T02:02:01;23.40;;;13.20;;
41705;SDS011;27385;51.096;17.190;2023-06-22T02:04:38;27.10;;;13.70;;
41705;SDS011;27385;51.096;17.190;2023-06-22T02:07:17;20.80;;;13.00;;
41705;SDS011;27385;51.096;17.190;2023-06-22T02:09:52;23.00;;;13.00;;
41705;SDS011;27385;51.096;17.190;2023-06-22T02:12:36;25.50;;;14.00;;
41705;SDS011;27385;51.096;17.190;2023-06-22T02:15:09;22.30;;;12.80;;
41705;SDS011;27385;51.096;17.190;2023-06-22T02:17:42;22.20;;;13.00;;
41705;SDS011;27385;51.096;17.190;2023-06-22T02:20:18;24.10;;;13.30;;
41705;SDS011;27385;51.096;17.190;2023-06-22T02:22:49;21.90;;;12.00;;
41705;SDS011;27385;51.096;17.190;2023-06-22T02:25:20;24.60;;;12.90;;
41705;SDS011;27385;51.096;17.190;2023-06-22T02:27:51;23.20;;;13.00;;
41705;SDS011;27385;51.096;17.190;2023-06-22T02:30:23;23.50;;;12.80;;
41705;SDS011;27385;51.096;17.190;2023-06-22T02:32:54;23.30;;;13.20;;
41705;SDS011;27385;51.096;17.190;2023-06-22T02:35:28;22.60;;;13.70;;
41705;SDS011;27385;51.096;17.190;2023-06-22T02:38:06;24.30;;;12.60;;
41705;SDS011;27385;51.096;17.190;2023-06-22T02:40:38;24.70;;;13.80;;
41705;SDS011;27385;51.096;17.190;2023-06-22T02:43:09;24.50;;;14.30;;
41705;SDS011;27385;51.096;17.190;2023-06-22T02:45:40;24.30;;;13.80;;
41705;SDS011;27385;51.096;17.190;2023-06-22T02:48:11;25.00;;;13.40;;
41705;SDS011;27385;51.096;17.190;2023-06-22T02:50:42;23.20;;;13.60;;
41705;SDS011;27385;51.096;17.190;2023-06-22T02:53:14;22.80;;;12.40;;
41705;SDS011;27385;51.096;17.190;2023-06-22T02:55:46;24.20;;;12.60;;
41705;SDS011;27385;51.096;17.190;2023-06-22T02:58:17;23.90;;;12.80;;
41705;SDS011;27385;51.096;17.190;2023-06-22T03:00:49;22.80;;;13.50;;
41705;SDS011;27385;51.096;17.190;2023-06-22T03:03:21;24.00;;;13.80;;
41705;SDS011;27385;51.096;17.190;2023-06-22T03:05:54;25.00;;;14.80;;
41705;SDS011;27385;51.096;17.190;2023-06-22T03:08:25;25.80;;;14.30;;
41705;SDS011;27385;51.096;17.190;2023-06-22T03:10:56;22.20;;;13.80;;
41705;SDS011;27385;51.096;17.190;2023-06-22T03:13:28;23.20;;;13.10;;
41705;SDS011;27385;51.096;17.190;2023-06-22T03:16:00;22.70;;;13.10;;
41705;SDS011;27385;51.096;17.190;2023-06-22T03:18:31;25.40;;;14.10;;
41705;SDS011;27385;51.096;17.190;2023-06-22T03:21:02;22.00;;;13.50;;
41705;SDS011;27385;51.096;17.190;2023-06-22T03:23:33;25.70;;;15.20;;
41705;SDS011;27385;51.096;17.190;2023-06-22T03:26:05;27.50;;;15.30;;
41705;SDS011;27385;51.096;17.190;2023-06-22T03:28:37;24.30;;;14.10;;
41705;SDS011;27385;51.096;17.190;2023-06-22T03:31:08;24.30;;;13.60;;
41705;SDS011;27385;51.096;17.190;2023-06-22T03:33:40;28.30;;;14.20;;
41705;SDS011;27385;51.096;17.190;2023-06-22T03:36:10;24.40;;;14.50;;
41705;SDS011;27385;51.096;17.190;2023-06-22T03:38:42;24.30;;;13.30;;
41705;SDS011;27385;51.096;17.190;2023-06-22T03:41:13;23.00;;;13.40;;
41705;SDS011;27385;51.096;17.190;2023-06-22T03:43:45;27.20;;;14.50;;
41705;SDS011;27385;51.096;17.190;2023-06-22T03:46:16;23.20;;;13.50;;
41705;SDS011;27385;51.096;17.190;2023-06-22T03:48:48;24.60;;;14.60;;
41705;SDS011;27385;51.096;17.190;2023-06-22T03:51:19;22.90;;;13.70;;
41705;SDS011;27385;51.096;17.190;2023-06-22T03:53:51;22.80;;;13.30;;
41705;SDS011;27385;51.096;17.190;2023-06-22T03:56:22;23.10;;;13.60;;
41705;SDS011;27385;51.096;17.190;2023-06-22T03:58:53;24.60;;;13.40;;
41705;SDS011;27385;51.096;17.190;2023-06-22T04:01:24;24.90;;;14.20;;
41705;SDS011;27385;51.096;17.190;2023-06-22T04:03:55;23.20;;;13.10;;
41705;SDS011;27385;51.096;17.190;2023-06-22T04:06:26;21.50;;;12.80;;
41705;SDS011;27385;51.096;17.190;2023-06-22T04:08:57;26.00;;;14.30;;
41705;SDS011;27385;51.096;17.190;2023-06-22T04:11:28;32.00;;;15.40;;
41705;SDS011;27385;51.096;17.190;2023-06-22T04:13:59;26.70;;;14.20;;
41705;SDS011;27385;51.096;17.190;2023-06-22T04:16:31;27.00;;;12.50;;
41705;SDS011;27385;51.096;17.190;2023-06-22T04:19:02;26.00;;;14.20;;
41705;SDS011;27385;51.096;17.190;2023-06-22T04:21:32;28.20;;;14.50;;
41705;SDS011;27385;51.096;17.190;2023-06-22T04:24:07;28.40;;;15.40;;
41705;SDS011;27385;51.096;17.190;2023-06-22T04:26:38;27.40;;;16.30;;
41705;SDS011;27385;51.096;17.190;2023-06-22T04:29:10;28.60;;;14.20;;
41705;SDS011;27385;51.096;17.190;2023-06-22T04:31:41;25.80;;;14.50;;
41705;SDS011;27385;51.096;17.190;2023-06-22T04:34:12;24.00;;;14.60;;
41705;SDS011;27385;51.096;17.190;2023-06-22T04:36:44;26.60;;;15.40;;
41705;SDS011;27385;51.096;17.190;2023-06-22T04:39:14;28.30;;;16.90;;
41705;SDS011;27385;51.096;17.190;2023-06-22T04:41:46;31.40;;;17.50;;
41705;SDS011;27385;51.096;17.190;2023-06-22T04:44:19;28.20;;;18.20;;
41705;SDS011;27385;51.096;17.190;2023-06-22T04:46:52;25.00;;;16.40;;
41705;SDS011;27385;51.096;17.190;2023-06-22T04:49:28;35.50;;;17.40;;
41705;SDS011;27385;51.096;17.190;2023-06-22T04:52:02;30.30;;;16.90;;
41705;SDS011;27385;51.096;17.190;2023-06-22T04:54:36;31.90;;;19.30;;
41705;SDS011;27385;51.096;17.190;2023-06-22T04:59:45;29.50;;;17.10;;
41705;SDS011;27385;51.096;17.190;2023-06-22T05:02:16;29.00;;;18.80;;
41705;SDS011;27385;51.096;17.190;2023-06-22T05:04:47;28.20;;;18.40;;
41705;SDS011;27385;51.096;17.190;2023-06-22T05:07:23;32.60;;;18.00;;
41705;SDS011;27385;51.096;17.190;2023-06-22T05:09:54;29.10;;;17.00;;
41705;SDS011;27385;51.096;17.190;2023-06-22T05:12:25;30.70;;;18.60;;
41705;SDS011;27385;51.096;17.190;2023-06-22T05:14:58;30.90;;;19.00;;
41705;SDS011;27385;51.096;17.190;2023-06-22T05:17:30;32.90;;;18.90;;
41705;SDS011;27385;51.096;17.190;2023-06-22T05:20:02;28.00;;;16.90;;
41705;SDS011;27385;51.096;17.190;2023-06-22T05:22:37;27.40;;;17.70;;
41705;SDS011;27385;51.096;17.190;2023-06-22T05:25:12;26.80;;;16.70;;
41705;SDS011;27385;51.096;17.190;2023-06-22T05:27:44;32.50;;;19.20;;
41705;SDS011;27385;51.096;17.190;2023-06-22T05:30:15;28.40;;;16.80;;
41705;SDS011;27385;51.096;17.190;2023-06-22T05:32:47;31.30;;;16.80;;
41705;SDS011;27385;51.096;17.190;2023-06-22T05:35:20;28.60;;;16.50;;
41705;SDS011;27385;51.096;17.190;2023-06-22T05:37:51;28.20;;;16.80;;
41705;SDS011;27385;51.096;17.190;2023-06-22T05:40:23;24.10;;;14.30;;
41705;SDS011;27385;51.096;17.190;2023-06-22T05:42:55;26.60;;;13.20;;
41705;SDS011;27385;51.096;17.190;2023-06-22T05:45:26;22.90;;;12.60;;
41705;SDS011;27385;51.096;17.190;2023-06-22T05:47:57;24.50;;;12.60;;
41705;SDS011;27385;51.096;17.190;2023-06-22T05:50:27;26.40;;;13.50;;
41705;SDS011;27385;51.096;17.190;2023-06-22T05:52:59;18.60;;;10.40;;
41705;SDS011;27385;51.096;17.190;2023-06-22T05:55:30;19.60;;;10.90;;
41705;SDS011;27385;51.096;17.190;2023-06-22T05:58:01;19.10;;;10.90;;
41705;SDS011;27385;51.096;17.190;2023-06-22T06:00:33;20.10;;;11.00;;
41705;SDS011;27385;51.096;17.190;2023-06-22T06:03:04;24.90;;;11.50;;
41705;SDS011;27385;51.096;17.190;2023-06-22T06:05:36;20.50;;;11.10;;
41705;SDS011;27385;51.096;17.190;2023-06-22T06:08:07;19.80;;;12.00;;
41705;SDS011;27385;51.096;17.190;2023-06-22T06:10:38;24.20;;;12.40;;
41705;SDS011;27385;51.096;17.190;2023-06-22T06:13:10;23.80;;;12.00;;
41705;SDS011;27385;51.096;17.190;2023-06-22T06:15:41;22.10;;;13.00;;
41705;SDS011;27385;51.096;17.190;2023-06-22T06:18:11;28.50;;;13.60;;
41705;SDS011;27385;51.096;17.190;2023-06-22T06:20:42;21.60;;;12.30;;
41705;SDS011;27385;51.096;17.190;2023-06-22T06:23:14;20.10;;;11.20;;
41705;SDS011;27385;51.096;17.190;2023-06-22T06:25:44;25.10;;;11.20;;
41705;SDS011;27385;51.096;17.190;2023-06-22T06:28:15;22.60;;;12.50;;
41705;SDS011;27385;51.096;17.190;2023-06-22T06:30:47;21.00;;;11.90;;
41705;SDS011;27385;51.096;17.190;2023-06-22T06:33:20;21.20;;;10.70;;
41705;SDS011;27385;51.096;17.190;2023-06-22T06:35:51;20.80;;;11.40;;
41705;SDS011;27385;51.096;17.190;2023-06-22T06:38:24;18.70;;;10.40;;
41705;SDS011;27385;51.096;17.190;2023-06-22T06:40:56;21.50;;;11.00;;
41705;SDS011;27385;51.096;17.190;2023-06-22T06:43:27;19.80;;;10.20;;
41705;SDS011;27385;51.096;17.190;2023-06-22T06:45:59;21.20;;;11.30;;
41705;SDS011;27385;51.096;17.190;2023-06-22T06:48:33;21.90;;;10.30;;
41705;SDS011;27385;51.096;17.190;2023-06-22T06:51:03;20.70;;;10.30;;
41705;SDS011;27385;51.096;17.190;2023-06-22T06:53:37;19.80;;;11.40;;
41705;SDS011;27385;51.096;17.190;2023-06-22T06:56:10;24.00;;;13.40;;
41705;SDS011;27385;51.096;17.190;2023-06-22T06:58:42;19.60;;;10.40;;
41705;SDS011;27385;51.096;17.190;2023-06-22T07:01:13;21.20;;;11.60;;
41705;SDS011;27385;51.096;17.190;2023-06-22T07:03:44;19.80;;;11.40;;
41705;SDS011;27385;51.096;17.190;2023-06-22T07:06:15;19.50;;;11.00;;
41705;SDS011;27385;51.096;17.190;2023-06-22T07:08:46;21.50;;;10.40;;
41705;SDS011;27385;51.096;17.190;2023-06-22T07:11:18;20.60;;;10.70;;
41705;SDS011;27385;51.096;17.190;2023-06-22T07:16:43;20.40;;;11.60;;
41705;SDS011;27385;51.096;17.190;2023-06-22T07:19:14;21.00;;;10.60;;
41705;SDS011;27385;51.096;17.190;2023-06-22T07:21:53;22.70;;;11.10;;
41705;SDS011;27385;51.096;17.190;2023-06-22T07:24:24;19.80;;;11.00;;
41705;SDS011;27385;51.096;17.190;2023-06-22T07:26:55;20.20;;;11.00;;
41705;SDS011;27385;51.096;17.190;2023-06-22T07:29:28;21.20;;;10.90;;
41705;SDS011;27385;51.096;17.190;2023-06-22T07:32:10;17.00;;;9.50;;
41705;SDS011;27385;51.096;17.190;2023-06-22T07:34:41;18.00;;;9.30;;
41705;SDS011;27385;51.096;17.190;2023-06-22T07:37:12;19.80;;;9.80;;
41705;SDS011;27385;51.096;17.190;2023-06-22T07:39:44;18.80;;;9.70;;
41705;SDS011;27385;51.096;17.190;2023-06-22T07:42:15;17.30;;;8.90;;
41705;SDS011;27385;51.096;17.190;2023-06-22T07:44:47;20.30;;;8.80;;
41705;SDS011;27385;51.096;17.190;2023-06-22T07:47:20;19.10;;;10.10;;
41705;SDS011;27385;51.096;17.190;2023-06-22T07:49:55;17.90;;;9.00;;
41705;SDS011;27385;51.096;17.190;2023-06-22T07:52:29;17.40;;;9.50;;
41705;SDS011;27385;51.096;17.190;2023-06-22T07:55:01;15.10;;;8.60;;
41705;SDS011;27385;51.096;17.190;2023-06-22T07:57:33;16.20;;;8.90;;
41705;SDS011;27385;51.096;17.190;2023-06-22T08:00:05;18.30;;;9.00;;
41705;SDS011;27385;51.096;17.190;2023-06-22T08:02:42;19.40;;;9.80;;
41705;SDS011;27385;51.096;17.190;2023-06-22T08:05:15;18.00;;;9.40;;
41705;SDS011;27385;51.096;17.190;2023-06-22T08:07:48;17.30;;;8.80;;
41705;SDS011;27385;51.096;17.190;2023-06-22T08:10:21;18.10;;;9.60;;
41705;SDS011;27385;51.096;17.190;2023-06-22T08:12:52;20.90;;;11.30;;
41705;SDS011;27385;51.096;17.190;2023-06-22T08:15:22;18.10;;;8.90;;
41705;SDS011;27385;51.096;17.190;2023-06-22T08:17:56;19.10;;;9.40;;
41705;SDS011;27385;51.096;17.190;2023-06-22T08:20:28;16.10;;;10.00;;
41705;SDS011;27385;51.096;17.190;2023-06-22T08:22:59;14.30;;;7.90;;
41705;SDS011;27385;51.096;17.190;2023-06-22T08:25:34;15.20;;;8.20;;
41705;SDS011;27385;51.096;17.190;2023-06-22T08:28:06;18.50;;;9.50;;
41705;SDS011;27385;51.096;17.190;2023-06-22T08:30:37;18.40;;;10.00;;
41705;SDS011;27385;51.096;17.190;2023-06-22T08:33:08;18.30;;;9.30;;
41705;SDS011;27385;51.096;17.190;2023-06-22T08:35:39;15.30;;;8.50;;
41705;SDS011;27385;51.096;17.190;2023-06-22T08:38:10;21.40;;;8.70;;
41705;SDS011;27385;51.096;17.190;2023-06-22T08:40:43;15.90;;;9.00;;
41705;SDS011;27385;51.096;17.190;2023-06-22T08:43:15;18.30;;;9.50;;
41705;SDS011;27385;51.096;17.190;2023-06-22T08:45:46;20.00;;;9.70;;
41705;SDS011;27385;51.096;17.190;2023-06-22T08:48:18;19.00;;;10.10;;
41705;SDS011;27385;51.096;17.190;2023-06-22T08:50:49;18.20;;;10.10;;
41705;SDS011;27385;51.096;17.190;2023-06-22T08:53:21;16.00;;;7.80;;
41705;SDS011;27385;51.096;17.190;2023-06-22T08:55:52;18.80;;;9.00;;
41705;SDS011;27385;51.096;17.190;2023-06-22T08:58:23;17.20;;;8.90;;
41705;SDS011;27385;51.096;17.190;2023-06-22T09:00:54;16.30;;;7.90;;
41705;SDS011;27385;51.096;17.190;2023-06-22T09:03:24;14.60;;;7.00;;
41705;SDS011;27385;51.096;17.190;2023-06-22T09:05:56;13.60;;;7.00;;
41705;SDS011;27385;51.096;17.190;2023-06-22T09:08:27;13.90;;;7.60;;
41705;SDS011;27385;51.096;17.190;2023-06-22T09:10:58;13.60;;;6.40;;
41705;SDS011;27385;51.096;17.190;2023-06-22T09:13:29;14.40;;;7.00;;
41705;SDS011;27385;51.096;17.190;2023-06-22T09:16:02;11.90;;;6.40;;
41705;SDS011;27385;51.096;17.190;2023-06-22T09:18:34;15.60;;;6.90;;
41705;SDS011;27385;51.096;17.190;2023-06-22T09:21:06;14.80;;;7.20;;
41705;SDS011;27385;51.096;17.190;2023-06-22T09:23:38;12.60;;;6.20;;
41705;SDS011;27385;51.096;17.190;2023-06-22T09:26:09;15.50;;;6.30;;
41705;SDS011;27385;51.096;17.190;2023-06-22T09:28:42;13.20;;;5.20;;
41705;SDS011;27385;51.096;17.190;2023-06-22T09:31:13;12.90;;;5.90;;
41705;SDS011;27385;51.096;17.190;2023-06-22T09:33:47;10.30;;;5.10;;
41705;SDS011;27385;51.096;17.190;2023-06-22T09:36:18;13.60;;;6.20;;
41705;SDS011;27385;51.096;17.190;2023-06-22T09:38:49;14.70;;;7.20;;
41705;SDS011;27385;51.096;17.190;2023-06-22T09:41:23;15.60;;;7.20;;
41705;SDS011;27385;51.096;17.190;2023-06-22T09:43:54;14.90;;;5.80;;
41705;SDS011;27385;51.096;17.190;2023-06-22T09:46:25;12.10;;;5.10;;
41705;SDS011;27385;51.096;17.190;2023-06-22T09:48:56;14.90;;;6.10;;
41705;SDS011;27385;51.096;17.190;2023-06-22T09:51:27;11.60;;;5.60;;
41705;SDS011;27385;51.096;17.190;2023-06-22T09:53:58;13.30;;;6.10;;
41705;SDS011;27385;51.096;17.190;2023-06-22T09:56:29;14.40;;;5.60;;
41705;SDS011;27385;51.096;17.190;2023-06-22T09:59:00;18.50;;;7.20;;
41705;SDS011;27385;51.096;17.190;2023-06-22T10:01:31;13.60;;;6.60;;
41705;SDS011;27385;51.096;17.190;2023-06-22T10:04:02;12.70;;;5.70;;
41705;SDS011;27385;51.096;17.190;2023-06-22T10:06:33;12.40;;;6.10;;
41705;SDS011;27385;51.096;17.190;2023-06-22T10:09:04;13.30;;;6.20;;
41705;SDS011;27385;51.096;17.190;2023-06-22T10:11:34;12.60;;;6.00;;
41705;SDS011;27385;51.096;17.190;2023-06-22T10:14:05;11.40;;;5.00;;
41705;SDS011;27385;51.096;17.190;2023-06-22T10:16:36;12.80;;;6.20;;
41705;SDS011;27385;51.096;17.190;2023-06-22T10:19:08;10.50;;;5.20;;
41705;SDS011;27385;51.096;17.190;2023-06-22T10:21:39;15.20;;;6.00;;
41705;SDS011;27385;51.096;17.190;2023-06-22T10:24:10;11.40;;;5.40;;
41705;SDS011;27385;51.096;17.190;2023-06-22T10:26:42;11.40;;;5.90;;
41705;SDS011;27385;51.096;17.190;2023-06-22T10:29:13;12.90;;;6.10;;
41705;SDS011;27385;51.096;17.190;2023-06-22T10:31:44;14.20;;;5.70;;
41705;SDS011;27385;51.096;17.190;2023-06-22T10:34:15;11.90;;;5.10;;
41705;SDS011;27385;51.096;17.190;2023-06-22T10:36:46;11.30;;;5.70;;
41705;SDS011;27385;51.096;17.190;2023-06-22T10:39:17;11.10;;;4.90;;
41705;SDS011;27385;51.096;17.190;2023-06-22T10:41:47;13.70;;;5.10;;
41705;SDS011;27385;51.096;17.190;2023-06-22T10:44:18;11.40;;;4.20;;
41705;SDS011;27385;51.096;17.190;2023-06-22T10:46:50;11.30;;;5.10;;
41705;SDS011;27385;51.096;17.190;2023-06-22T10:49:21;12.20;;;5.50;;
41705;SDS011;27385;51.096;17.190;2023-06-22T10:51:52;15.70;;;4.70;;
41705;SDS011;27385;51.096;17.190;2023-06-22T10:54:23;10.30;;;5.00;;
41705;SDS011;27385;51.096;17.190;2023-06-22T10:56:54;10.90;;;4.70;;
41705;SDS011;27385;51.096;17.190;2023-06-22T10:59:24;12.10;;;4.10;;
41705;SDS011;27385;51.096;17.190;2023-06-22T11:01:56;10.50;;;5.10;;
41705;SDS011;27385;51.096;17.190;2023-06-22T11:04:27;8.80;;;4.20;;
41705;SDS011;27385;51.096;17.190;2023-06-22T11:06:58;11.70;;;5.00;;
41705;SDS011;27385;51.096;17.190;2023-06-22T11:09:29;12.80;;;4.40;;
41705;SDS011;27385;51.096;17.190;2023-06-22T11:12:00;12.80;;;4.90;;
41705;SDS011;27385;51.096;17.190;2023-06-22T11:14:32;12.60;;;4.40;;
41705;SDS011;27385;51.096;17.190;2023-06-22T11:17:03;11.30;;;4.70;;
41705;SDS011;27385;51.096;17.190;2023-06-22T11:19:34;10.00;;;4.50;;
41705;SDS011;27385;51.096;17.190;2023-06-22T11:22:05;9.60;;;4.00;;
41705;SDS011;27385;51.096;17.190;2023-06-22T11:24:36;10.40;;;4.60;;
41705;SDS011;27385;51.096;17.190;2023-06-22T11:27:08;10.80;;;4.40;;
41705;SDS011;27385;51.096;17.190;2023-06-22T11:29:39;10.60;;;4.50;;
41705;SDS011;27385;51.096;17.190;2023-06-22T11:32:10;11.00;;;4.70;;
41705;SDS011;27385;51.096;17.190;2023-06-22T11:34:43;9.90;;;4.30;;
41705;SDS011;27385;51.096;17.190;2023-06-22T11:37:14;9.30;;;4.10;;
41705;SDS011;27385;51.096;17.190;2023-06-22T11:39:45;9.70;;;4.00;;
41705;SDS011;27385;51.096;17.190;2023-06-22T11:42:16;9.20;;;4.10;;
41705;SDS011;27385;51.096;17.190;2023-06-22T11:44:47;11.50;;;4.00;;
41705;SDS011;27385;51.096;17.190;2023-06-22T11:47:18;9.10;;;3.80;;
41705;SDS011;27385;51.096;17.190;2023-06-22T11:49:49;7.00;;;3.30;;
41705;SDS011;27385;51.096;17.190;2023-06-22T11:52:20;9.70;;;3.70;;
41705;SDS011;27385;51.096;17.190;2023-06-22T11:54:52;7.60;;;3.30;;
41705;SDS011;27385;51.096;17.190;2023-06-22T11:57:23;9.10;;;3.90;;
41705;SDS011;27385;51.096;17.190;2023-06-22T11:59:53;8.80;;;3.30;;
41705;SDS011;27385;51.096;17.190;2023-06-22T12:02:24;9.90;;;3.90;;
41705;SDS011;27385;51.096;17.190;2023-06-22T12:04:55;9.90;;;3.70;;
41705;SDS011;27385;51.096;17.190;2023-06-22T12:07:26;9.70;;;3.90;;
41705;SDS011;27385;51.096;17.190;2023-06-22T12:09:57;9.40;;;3.30;;
41705;SDS011;27385;51.096;17.190;2023-06-22T12:12:29;9.60;;;3.50;;
41705;SDS011;27385;51.096;17.190;2023-06-22T12:15:00;7.80;;;3.70;;
41705;SDS011;27385;51.096;17.190;2023-06-22T12:17:33;11.60;;;4.70;;
41705;SDS011;27385;51.096;17.190;2023-06-22T12:20:04;10.70;;;4.00;;
41705;SDS011;27385;51.096;17.190;2023-06-22T12:22:38;12.60;;;4.10;;
41705;SDS011;27385;51.096;17.190;2023-06-22T12:25:10;9.90;;;3.80;;
41705;SDS011;27385;51.096;17.190;2023-06-22T12:27:42;11.00;;;4.60;;
41705;SDS011;27385;51.096;17.190;2023-06-22T12:30:12;9.10;;;3.40;;
41705;SDS011;27385;51.096;17.190;2023-06-22T12:32:44;8.50;;;3.40;;
41705;SDS011;27385;51.096;17.190;2023-06-22T12:35:15;10.20;;;3.90;;
41705;SDS011;27385;51.096;17.190;2023-06-22T12:37:46;8.30;;;3.80;;
41705;SDS011;27385;51.096;17.190;2023-06-22T12:40:25;6.80;;;3.00;;
41705;SDS011;27385;51.096;17.190;2023-06-22T12:42:57;8.70;;;3.40;;
41705;SDS011;27385;51.096;17.190;2023-06-22T12:45:50;9.30;;;4.20;;
41705;SDS011;27385;51.096;17.190;2023-06-22T12:48:22;7.70;;;3.20;;
41705;SDS011;27385;51.096;17.190;2023-06-22T12:50:54;7.40;;;3.10;;
41705;SDS011;27385;51.096;17.190;2023-06-22T12:53:26;8.20;;;3.80;;
41705;SDS011;27385;51.096;17.190;2023-06-22T12:55:57;9.60;;;3.80;;
41705;SDS011;27385;51.096;17.190;2023-06-22T12:58:27;9.50;;;3.90;;
41705;SDS011;27385;51.096;17.190;2023-06-22T13:00:58;8.50;;;3.50;;
41705;SDS011;27385;51.096;17.190;2023-06-22T13:03:29;13.40;;;3.50;;
41705;SDS011;27385;51.096;17.190;2023-06-22T13:06:00;8.30;;;3.60;;
41705;SDS011;27385;51.096;17.190;2023-06-22T13:08:35;8.40;;;3.30;;
41705;SDS011;27385;51.096;17.190;2023-06-22T13:11:10;9.90;;;3.30;;
41705;SDS011;27385;51.096;17.190;2023-06-22T13:13:41;8.10;;;3.80;;
41705;SDS011;27385;51.096;17.190;2023-06-22T13:16:12;11.30;;;4.10;;
41705;SDS011;27385;51.096;17.190;2023-06-22T13:18:43;8.30;;;3.50;;
41705;SDS011;27385;51.096;17.190;2023-06-22T13:21:14;8.80;;;4.00;;
41705;SDS011;27385;51.096;17.190;2023-06-22T13:23:45;8.80;;;4.00;;
41705;SDS011;27385;51.096;17.190;2023-06-22T13:26:16;7.60;;;3.10;;
41705;SDS011;27385;51.096;17.190;2023-06-22T13:28:48;10.60;;;3.30;;
41705;SDS011;27385;51.096;17.190;2023-06-22T13:31:19;7.60;;;3.20;;
41705;SDS011;27385;51.096;17.190;2023-06-22T13:33:52;8.20;;;2.90;;
41705;SDS011;27385;51.096;17.190;2023-06-22T13:36:22;8.70;;;3.40;;
41705;SDS011;27385;51.096;17.190;2023-06-22T13:38:53;7.30;;;2.60;;
41705;SDS011;27385;51.096;17.190;2023-06-22T13:41:24;8.80;;;2.80;;
41705;SDS011;27385;51.096;17.190;2023-06-22T13:43:55;7.70;;;2.80;;
41705;SDS011;27385;51.096;17.190;2023-06-22T13:46:27;11.50;;;3.30;;
41705;SDS011;27385;51.096;17.190;2023-06-22T13:48:58;7.10;;;2.30;;
41705;SDS011;27385;51.096;17.190;2023-06-22T13:51:29;8.70;;;3.30;;
41705;SDS011;27385;51.096;17.190;2023-06-22T13:54:00;8.20;;;3.00;;
41705;SDS011;27385;51.096;17.190;2023-06-22T13:56:31;7.10;;;2.70;;
41705;SDS011;27385;51.096;17.190;2023-06-22T13:59:03;8.50;;;2.50;;
41705;SDS011;27385;51.096;17.190;2023-06-22T14:01:35;12.30;;;3.00;;
41705;SDS011;27385;51.096;17.190;2023-06-22T14:04:07;8.10;;;2.50;;
41705;SDS011;27385;51.096;17.190;2023-06-22T14:06:39;7.50;;;2.90;;
41705;SDS011;27385;51.096;17.190;2023-06-22T14:09:10;7.90;;;2.40;;
41705;SDS011;27385;51.096;17.190;2023-06-22T14:11:42;8.20;;;2.60;;
41705;SDS011;27385;51.096;17.190;2023-06-22T14:14:13;7.90;;;2.20;;
41705;SDS011;27385;51.096;17.190;2023-06-22T14:16:45;7.60;;;2.60;;
41705;SDS011;27385;51.096;17.190;2023-06-22T14:19:18;6.60;;;2.60;;
41705;SDS011;27385;51.096;17.190;2023-06-22T14:21:49;7.40;;;2.50;;
41705;SDS011;27385;51.096;17.190;2023-06-22T14:24:19;6.80;;;2.50;;
41705;SDS011;27385;51.096;17.190;2023-06-22T14:26:51;6.80;;;2.30;;
41705;SDS011;27385;51.096;17.190;2023-06-22T14:29:22;6.90;;;2.80;;
41705;SDS011;27385;51.096;17.190;2023-06-22T14:31:54;7.30;;;2.60;;
41705;SDS011;27385;51.096;17.190;2023-06-22T14:34:26;7.40;;;2.60;;
41705;SDS011;27385;51.096;17.190;2023-06-22T14:36:57;8.00;;;3.00;;
41705;SDS011;27385;51.096;17.190;2023-06-22T14:39:28;7.70;;;3.00;;
41705;SDS011;27385;51.096;17.190;2023-06-22T14:41:59;8.00;;;2.90;;
41705;SDS011;27385;51.096;17.190;2023-06-22T14:44:31;6.80;;;2.60;;
41705;SDS011;27385;51.096;17.190;2023-06-22T14:47:02;12.00;;;3.10;;
41705;SDS011;27385;51.096;17.190;2023-06-22T14:49:34;7.70;;;2.60;;
41705;SDS011;27385;51.096;17.190;2023-06-22T14:52:06;8.00;;;3.00;;
41705;SDS011;27385;51.096;17.190;2023-06-22T14:54:38;11.40;;;3.00;;